createdAt,value
2023-05-03T00:01:06.828Z,4.45
2023-05-03T00:03:33.100Z,4.53
2023-05-03T00:06:11.975Z,4.82
2023-05-03T00:08:38.481Z,5.10
2023-05-03T00:11:04.317Z,5.43
2023-05-03T00:13:30.122Z,4.55
2023-05-03T00:15:55.904Z,4.65
2023-05-03T00:18:21.913Z,5.28
2023-05-03T00:20:47.744Z,5.05
2023-05-03T00:23:13.525Z,4.70
2023-05-03T00:25:39.701Z,4.45
2023-05-03T00:28:05.483Z,4.50
2023-05-03T00:30:31.335Z,4.55
2023-05-03T00:32:57.207Z,5.00
2023-05-03T00:35:23.139Z,4.38
2023-05-03T00:37:48.923Z,5.13
2023-05-03T00:40:17.845Z,4.55
2023-05-03T00:42:45.784Z,4.82
2023-05-03T00:45:11.660Z,3.92
2023-05-03T00:47:37.938Z,4.55
2023-05-03T00:50:05.239Z,4.47
2023-05-03T00:52:31.446Z,4.13
2023-05-03T00:54:57.432Z,4.10
2023-05-03T00:57:25.432Z,4.30
2023-05-03T00:59:52.186Z,3.85
2023-05-03T01:02:18.157Z,4.00
2023-05-03T01:04:44.711Z,3.83
2023-05-03T01:07:27.832Z,3.72
2023-05-03T01:10:11.604Z,4.05
2023-05-03T01:13:14.968Z,3.88
2023-05-03T01:16:16.413Z,4.38
2023-05-03T01:18:48.307Z,4.25
2023-05-03T01:21:17.772Z,4.47
2023-05-03T01:24:06.225Z,4.63
2023-05-03T01:26:32.761Z,5.13
2023-05-03T01:28:59.529Z,4.63
2023-05-03T01:31:38.705Z,4.00
2023-05-03T01:34:28.140Z,4.38
2023-05-03T01:36:58.008Z,3.85
2023-05-03T01:39:50.188Z,4.55
2023-05-03T01:42:18.664Z,3.97
2023-05-03T01:44:46.607Z,3.70
2023-05-03T01:47:14.350Z,4.25
2023-05-03T01:49:40.254Z,3.45
2023-05-03T01:52:06.164Z,4.30
2023-05-03T01:54:32.019Z,4.05
2023-05-03T01:56:57.819Z,3.75
2023-05-03T01:59:23.576Z,3.78
2023-05-03T02:01:49.383Z,4.22
2023-05-03T02:04:15.192Z,3.83
2023-05-03T02:06:41.038Z,4.50
2023-05-03T02:09:07.796Z,4.03
2023-05-03T02:11:33.565Z,3.65
2023-05-03T02:13:59.655Z,3.95
2023-05-03T02:16:26.099Z,4.47
2023-05-03T02:18:53.082Z,4.10
2023-05-03T02:21:18.944Z,3.60
2023-05-03T02:23:44.776Z,3.88
2023-05-03T02:26:10.606Z,4.15
2023-05-03T02:28:36.400Z,4.40
2023-05-03T02:31:02.283Z,4.60
2023-05-03T02:33:28.123Z,5.00
2023-05-03T02:35:53.965Z,5.05
2023-05-03T02:38:19.776Z,5.80
2023-05-03T02:40:45.558Z,4.50
2023-05-03T02:43:11.328Z,4.22
2023-05-03T02:45:37.446Z,4.25
2023-05-03T02:48:03.431Z,5.22
2023-05-03T02:50:29.439Z,4.93
2023-05-03T02:52:55.299Z,5.00
2023-05-03T02:55:22.111Z,6.10
2023-05-03T02:57:47.892Z,4.97
2023-05-03T03:00:15.070Z,5.57
2023-05-03T03:02:41.035Z,5.18
2023-05-03T03:05:08.341Z,6.10
2023-05-03T03:07:36.369Z,5.93
2023-05-03T03:10:02.518Z,6.43
2023-05-03T03:12:29.149Z,6.22
2023-05-03T03:14:54.963Z,5.15
2023-05-03T03:17:20.781Z,5.35
2023-05-03T03:19:46.560Z,6.57
2023-05-03T03:22:12.353Z,6.15
2023-05-03T03:24:38.888Z,6.00
2023-05-03T03:27:04.803Z,5.85
2023-05-03T03:29:32.354Z,6.10
2023-05-03T03:31:58.302Z,7.22
2023-05-03T03:34:24.372Z,6.22
2023-05-03T03:36:50.223Z,7.45
2023-05-03T03:39:16.193Z,7.70
2023-05-03T03:41:42.170Z,7.47
2023-05-03T03:44:08.210Z,8.20
2023-05-03T03:46:34.110Z,7.63
2023-05-03T03:49:00.056Z,7.80
2023-05-03T03:51:26.181Z,7.85
2023-05-03T03:53:52.291Z,7.47
2023-05-03T03:56:18.211Z,7.13
2023-05-03T03:58:44.117Z,8.50
2023-05-03T04:01:10.692Z,8.07
2023-05-03T04:03:36.617Z,7.47
2023-05-03T04:06:03.175Z,7.88
2023-05-03T04:08:29.000Z,8.30
2023-05-03T04:10:54.820Z,8.07
2023-05-03T04:13:20.683Z,7.43
2023-05-03T04:15:46.478Z,6.82
2023-05-03T04:18:12.342Z,7.60
2023-05-03T04:20:38.519Z,6.82
2023-05-03T04:23:04.397Z,7.30
2023-05-03T04:25:31.377Z,6.18
2023-05-03T04:27:58.080Z,6.80
2023-05-03T04:30:25.025Z,6.22
2023-05-03T04:32:53.503Z,6.97
2023-05-03T04:35:19.900Z,6.38
2023-05-03T04:37:46.049Z,5.70
2023-05-03T04:40:12.094Z,5.78
2023-05-03T04:42:38.379Z,6.00
2023-05-03T04:45:08.836Z,6.20
2023-05-03T04:47:35.341Z,6.00
2023-05-03T04:50:01.649Z,5.75
2023-05-03T04:52:27.704Z,5.22
2023-05-03T04:54:53.705Z,5.78
2023-05-03T04:57:20.914Z,5.50
2023-05-03T04:59:46.710Z,5.50
2023-05-03T05:02:12.523Z,5.75
2023-05-03T05:04:38.328Z,5.28
2023-05-03T05:07:04.091Z,5.07
2023-05-03T05:09:32.624Z,6.03
2023-05-03T05:11:58.484Z,5.50
2023-05-03T05:14:27.575Z,5.30
2023-05-03T05:16:53.461Z,6.15
2023-05-03T05:19:19.373Z,5.18
2023-05-03T05:21:45.193Z,6.45
2023-05-03T05:24:10.987Z,5.68
2023-05-03T05:26:36.978Z,5.63
2023-05-03T05:29:03.088Z,6.60
2023-05-03T05:31:29.022Z,4.97
2023-05-03T05:33:55.064Z,5.70
2023-05-03T05:36:21.027Z,5.53
2023-05-03T05:38:46.881Z,6.25
2023-05-03T05:41:12.697Z,5.88
2023-05-03T05:43:38.464Z,6.97
2023-05-03T05:46:04.392Z,5.72
2023-05-03T05:48:30.252Z,6.13
2023-05-03T05:50:56.059Z,4.93
2023-05-03T05:53:22.971Z,5.57
2023-05-03T05:55:48.749Z,5.97
2023-05-03T05:58:14.521Z,5.10
2023-05-03T06:00:40.381Z,4.95
2023-05-03T06:03:06.656Z,6.10
2023-05-03T06:05:32.568Z,5.65
2023-05-03T06:07:59.144Z,4.50
2023-05-03T06:10:25.462Z,5.15
2023-05-03T06:12:51.308Z,4.97
2023-05-03T06:15:17.177Z,5.93
2023-05-03T06:17:43.300Z,5.32
2023-05-03T06:20:12.128Z,5.05
2023-05-03T06:22:38.212Z,5.57
2023-05-03T06:25:05.029Z,5.68
2023-05-03T06:27:30.935Z,4.50
2023-05-03T06:29:56.758Z,5.20
2023-05-03T06:32:22.927Z,5.00
2023-05-03T06:34:49.417Z,5.47
2023-05-03T06:37:16.075Z,5.80
2023-05-03T06:39:41.978Z,4.60
2023-05-03T06:42:07.828Z,5.35
2023-05-03T06:44:33.624Z,5.55
2023-05-03T06:46:59.584Z,5.20
2023-05-03T06:49:25.468Z,5.45
2023-05-03T06:51:51.531Z,5.40
2023-05-03T06:54:21.574Z,4.95
2023-05-03T06:56:47.459Z,5.22
2023-05-03T06:59:13.313Z,4.80
2023-05-03T07:01:39.271Z,4.90
2023-05-03T07:04:05.261Z,5.40
2023-05-03T07:06:37.746Z,5.05
2023-05-03T07:09:10.420Z,5.05
2023-05-03T07:11:38.603Z,5.20
2023-05-03T07:14:06.524Z,4.85
2023-05-03T07:16:32.479Z,5.03
2023-05-03T07:18:58.332Z,5.10
2023-05-03T07:21:26.230Z,4.53
2023-05-03T07:23:52.000Z,4.57
2023-05-03T07:26:17.924Z,4.72
2023-05-03T07:28:43.803Z,4.60
2023-05-03T07:31:10.018Z,4.10
2023-05-03T07:33:36.676Z,4.75
2023-05-03T07:36:04.243Z,4.68
2023-05-03T07:38:30.176Z,5.22
2023-05-03T07:40:56.000Z,4.65
2023-05-03T07:43:22.972Z,4.20
2023-05-03T07:45:49.308Z,4.47
2023-05-03T07:48:15.289Z,4.28
2023-05-03T07:50:43.254Z,4.68
2023-05-03T07:53:09.257Z,4.18
2023-05-03T07:55:35.843Z,4.38
2023-05-03T07:58:02.947Z,3.65
2023-05-03T08:00:28.742Z,3.45
2023-05-03T08:02:54.891Z,4.45
2023-05-03T08:05:22.616Z,3.70
2023-05-03T08:07:49.458Z,3.55
2023-05-03T08:10:15.432Z,4.05
2023-05-03T08:12:41.380Z,4.10
2023-05-03T08:15:07.867Z,3.38
2023-05-03T08:17:43.966Z,4.13
2023-05-03T08:20:10.954Z,4.03
2023-05-03T08:22:38.071Z,3.47
2023-05-03T08:25:04.280Z,3.70
2023-05-03T08:27:30.984Z,3.75
2023-05-03T08:29:57.069Z,3.60
2023-05-03T08:32:24.351Z,4.32
2023-05-03T08:34:50.795Z,3.90
2023-05-03T08:37:16.750Z,3.97
2023-05-03T08:39:42.694Z,3.65
2023-05-03T08:42:08.725Z,4.53
2023-05-03T08:44:47.424Z,3.60
2023-05-03T08:47:15.619Z,3.60
2023-05-03T08:49:42.899Z,3.90
2023-05-03T08:52:13.982Z,4.28
2023-05-03T08:54:40.697Z,4.28
2023-05-03T08:57:12.956Z,3.90
2023-05-03T09:00:00.958Z,4.15
2023-05-03T09:02:27.737Z,3.83
2023-05-03T09:04:55.902Z,4.18
2023-05-03T09:07:22.009Z,4.40
2023-05-03T09:09:47.883Z,3.45
2023-05-03T09:12:33.745Z,4.72
2023-05-03T09:15:00.194Z,3.83
2023-05-03T09:17:26.351Z,3.70
2023-05-03T09:19:56.980Z,3.30
2023-05-03T09:22:28.185Z,3.25
2023-05-03T09:24:59.585Z,3.40
2023-05-03T09:27:26.746Z,3.13
2023-05-03T09:29:53.674Z,3.53
2023-05-03T09:32:22.149Z,3.47
2023-05-03T09:34:48.217Z,3.33
2023-05-03T09:37:14.218Z,3.60
2023-05-03T09:39:45.505Z,3.15
2023-05-03T09:42:21.322Z,3.65
2023-05-03T09:44:50.565Z,3.47
2023-05-03T09:47:17.986Z,2.88
2023-05-03T09:49:44.285Z,3.30
2023-05-03T09:52:10.699Z,3.75
2023-05-03T09:54:37.655Z,3.03
2023-05-03T09:57:07.675Z,2.97
2023-05-03T09:59:38.889Z,3.50
2023-05-03T10:02:08.178Z,3.05
2023-05-03T10:04:46.900Z,3.35
2023-05-03T10:07:19.524Z,3.13
2023-05-03T10:09:47.279Z,3.22
2023-05-03T10:12:16.705Z,3.33
2023-05-03T10:14:47.597Z,3.67
2023-05-03T10:17:35.276Z,3.00
2023-05-03T10:20:27.911Z,2.40
2023-05-03T10:23:05.825Z,3.63
2023-05-03T10:25:33.979Z,2.50
2023-05-03T10:28:04.350Z,2.72
2023-05-03T10:30:31.957Z,3.70
2023-05-03T10:32:59.631Z,2.90
2023-05-03T10:35:27.502Z,3.22
2023-05-03T10:37:56.139Z,3.13
2023-05-03T10:40:22.570Z,3.03
2023-05-03T10:42:54.206Z,2.80
2023-05-03T10:45:28.158Z,3.03
2023-05-03T10:48:12.229Z,2.67
2023-05-03T10:50:38.994Z,2.75
2023-05-03T10:53:05.108Z,2.58
2023-05-03T10:55:32.135Z,2.72
2023-05-03T10:57:58.852Z,3.22
2023-05-03T11:00:29.246Z,2.85
2023-05-03T11:03:08.708Z,2.80
2023-05-03T11:05:35.885Z,2.78
2023-05-03T11:08:11.123Z,2.33
2023-05-03T11:10:36.991Z,2.97
2023-05-03T11:13:02.799Z,2.58
2023-05-03T11:15:28.884Z,2.40
2023-05-03T11:17:55.385Z,2.50
2023-05-03T11:20:21.309Z,2.80
2023-05-03T11:22:47.500Z,2.22
2023-05-03T11:25:14.628Z,2.63
2023-05-03T11:27:41.536Z,2.88
2023-05-03T11:30:09.518Z,2.83
2023-05-03T11:32:36.183Z,2.30
2023-05-03T11:35:04.855Z,2.83
2023-05-03T11:37:31.657Z,2.28
2023-05-03T11:39:58.410Z,2.05
2023-05-03T11:42:25.388Z,1.98
2023-05-03T11:44:52.432Z,2.20
2023-05-03T11:47:18.536Z,1.80
2023-05-03T11:49:52.066Z,2.08
2023-05-03T11:52:26.696Z,2.13
2023-05-03T11:54:53.590Z,1.90
2023-05-03T11:57:21.067Z,2.55
2023-05-03T11:59:48.985Z,2.75
2023-05-03T12:02:15.535Z,2.55
2023-05-03T12:04:43.932Z,2.70
2023-05-03T12:07:11.686Z,2.75
2023-05-03T12:09:40.399Z,1.80
2023-05-03T12:12:10.079Z,2.42
2023-05-03T12:14:58.442Z,2.13
2023-05-03T12:17:42.586Z,1.80
2023-05-03T12:22:56.337Z,2.03
2023-05-03T12:25:26.448Z,1.95
2023-05-03T12:28:12.782Z,2.10
2023-05-03T12:30:40.677Z,1.90
2023-05-03T12:33:09.636Z,2.05
2023-05-03T12:35:39.080Z,1.90
2023-05-03T12:38:09.485Z,2.33
2023-05-03T12:40:36.232Z,1.73
2023-05-03T12:43:02.932Z,2.05
2023-05-03T12:45:33.790Z,1.90
2023-05-03T12:48:00.678Z,1.55
2023-05-03T12:50:30.920Z,1.90
2023-05-03T12:53:01.624Z,2.03
2023-05-03T12:55:33.595Z,1.70
2023-05-03T13:00:36.786Z,1.77
2023-05-03T13:05:36.219Z,1.50
2023-05-03T13:08:08.517Z,1.58
2023-05-03T13:10:36.842Z,2.10
2023-05-03T13:13:03.455Z,1.92
2023-05-03T13:15:30.085Z,1.90
2023-05-03T13:17:56.497Z,1.60
2023-05-03T13:20:22.699Z,1.60
2023-05-03T13:22:48.947Z,1.58
2023-05-03T13:25:15.016Z,1.23
2023-05-03T13:27:41.024Z,1.58
2023-05-03T13:30:07.960Z,1.50
2023-05-03T13:32:33.965Z,1.58
2023-05-03T13:34:59.955Z,1.50
2023-05-03T13:37:25.867Z,1.80
2023-05-03T13:39:51.718Z,2.30
2023-05-03T13:42:19.533Z,1.95
2023-05-03T13:44:48.208Z,1.70
2023-05-03T13:47:14.560Z,1.40
2023-05-03T13:49:40.817Z,1.48
2023-05-03T13:52:06.903Z,1.70
2023-05-03T13:54:32.879Z,1.83
2023-05-03T13:56:58.770Z,1.30
2023-05-03T13:59:24.788Z,1.65
2023-05-03T14:01:50.720Z,1.48
2023-05-03T14:04:16.812Z,1.50
2023-05-03T14:06:42.900Z,2.33
2023-05-03T14:09:09.094Z,1.60
2023-05-03T14:11:35.078Z,1.60
2023-05-03T14:14:01.093Z,1.70
2023-05-03T14:18:56.305Z,2.33
2023-05-03T14:21:22.264Z,2.20
2023-05-03T14:23:51.381Z,2.10
2023-05-03T14:26:18.838Z,2.17
2023-05-03T14:28:45.552Z,2.67
2023-05-03T14:31:12.463Z,3.13
2023-05-03T14:33:39.244Z,2.53
2023-05-03T14:36:08.800Z,1.40
2023-05-03T14:38:36.512Z,1.95
2023-05-03T14:41:02.862Z,2.20
2023-05-03T14:43:28.770Z,2.17
2023-05-03T14:45:54.731Z,2.80
2023-05-03T14:48:20.588Z,1.90
2023-05-03T14:50:50.483Z,1.70
2023-05-03T14:53:16.492Z,1.67
2023-05-03T14:55:42.833Z,1.77
2023-05-03T14:58:10.091Z,1.75
2023-05-03T15:00:40.275Z,1.95
2023-05-03T15:03:10.741Z,1.92
2023-05-03T15:05:46.903Z,2.17
2023-05-03T15:08:14.488Z,2.17
2023-05-03T15:10:41.437Z,2.20
2023-05-03T15:13:08.800Z,2.10
2023-05-03T15:15:35.294Z,2.22
2023-05-03T15:18:01.216Z,1.92
2023-05-03T15:20:27.074Z,2.33
2023-05-03T15:22:53.074Z,2.20
2023-05-03T15:25:18.979Z,2.22
2023-05-03T15:27:44.975Z,2.08
2023-05-03T15:30:14.512Z,2.30
2023-05-03T15:32:40.420Z,2.40
2023-05-03T15:35:06.554Z,1.90
2023-05-03T15:37:36.922Z,2.50
2023-05-03T15:40:04.772Z,2.65
2023-05-03T15:42:31.259Z,1.92
2023-05-03T15:44:57.412Z,2.78
2023-05-03T15:47:24.054Z,2.20
2023-05-03T15:49:50.041Z,2.20
2023-05-03T15:52:16.446Z,2.80
2023-05-03T15:54:42.346Z,2.00
2023-05-03T15:57:08.494Z,2.40
2023-05-03T15:59:34.391Z,2.45
2023-05-03T16:02:02.567Z,2.65
2023-05-03T16:04:28.594Z,2.72
2023-05-03T16:06:54.520Z,2.70
2023-05-03T16:09:21.055Z,2.60
2023-05-03T16:11:47.006Z,2.97
2023-05-03T16:14:13.260Z,2.38
2023-05-03T16:16:39.902Z,2.80
2023-05-03T16:19:07.998Z,2.55
2023-05-03T16:21:33.832Z,2.72
2023-05-03T16:23:59.808Z,3.15
2023-05-03T16:26:26.137Z,2.25
2023-05-03T16:28:52.020Z,2.50
2023-05-03T16:31:17.951Z,3.47
2023-05-03T16:33:43.867Z,2.90
2023-05-03T16:36:10.093Z,2.78
2023-05-03T16:38:36.364Z,2.50
2023-05-03T16:41:02.597Z,2.85
2023-05-03T16:43:29.063Z,2.97
2023-05-03T16:45:59.494Z,2.75
2023-05-03T16:48:29.575Z,2.65
2023-05-03T16:50:55.964Z,2.97
2023-05-03T16:53:22.503Z,3.10
2023-05-03T16:55:48.358Z,2.70
2023-05-03T16:58:14.779Z,2.40
2023-05-03T17:00:40.954Z,2.70
2023-05-03T17:03:07.586Z,2.25
2023-05-03T17:05:34.430Z,2.72
2023-05-03T17:08:01.395Z,3.05
2023-05-03T17:10:28.252Z,3.10
2023-05-03T17:13:01.259Z,2.47
2023-05-03T17:15:27.544Z,2.58
2023-05-03T17:17:53.593Z,2.20
2023-05-03T17:20:20.009Z,2.35
2023-05-03T17:22:45.903Z,2.42
2023-05-03T17:25:11.759Z,2.53
2023-05-03T17:27:37.655Z,2.22
2023-05-03T17:30:05.222Z,2.25
2023-05-03T17:32:31.553Z,2.60
2023-05-03T17:34:57.843Z,2.55
2023-05-03T17:37:24.442Z,2.45
2023-05-03T17:39:50.587Z,2.47
2023-05-03T17:42:16.505Z,2.10
2023-05-03T17:44:42.857Z,2.90
2023-05-03T17:47:10.263Z,2.20
2023-05-03T17:49:37.088Z,2.50
2023-05-03T17:52:03.955Z,2.13
2023-05-03T17:54:30.211Z,2.28
2023-05-03T17:56:56.338Z,2.60
2023-05-03T17:59:22.136Z,2.47
2023-05-03T18:01:48.221Z,1.98
2023-05-03T18:04:14.510Z,2.58
2023-05-03T18:06:40.591Z,2.50
2023-05-03T18:09:07.304Z,2.22
2023-05-03T18:11:33.277Z,2.08
2023-05-03T18:13:59.240Z,2.55
2023-05-03T18:16:25.430Z,2.50
2023-05-03T18:18:52.367Z,2.70
2023-05-03T18:21:18.444Z,2.25
2023-05-03T18:23:44.776Z,3.92
2023-05-03T18:26:10.601Z,2.38
2023-05-03T18:28:36.948Z,2.13
2023-05-03T18:31:03.507Z,2.65
2023-05-03T18:33:31.359Z,2.65
2023-05-03T18:35:58.128Z,2.45
2023-05-03T18:38:24.519Z,2.30
2023-05-03T18:40:51.048Z,2.42
2023-05-03T18:43:16.987Z,2.33
2023-05-03T18:45:43.458Z,2.33
2023-05-03T18:48:09.520Z,2.15
2023-05-03T18:50:37.591Z,2.42
2023-05-03T18:53:04.563Z,2.70
2023-05-03T18:55:30.615Z,2.65
2023-05-03T18:57:56.547Z,2.55
2023-05-03T19:00:22.497Z,2.72
2023-05-03T19:03:00.811Z,2.10
2023-05-03T19:05:26.968Z,2.88
2023-05-03T19:07:56.200Z,2.53
2023-05-03T19:10:22.112Z,2.33
2023-05-03T19:12:48.090Z,2.53
2023-05-03T19:15:14.217Z,2.47
2023-05-03T19:17:41.255Z,2.35
2023-05-03T19:20:09.425Z,2.30
2023-05-03T19:22:35.497Z,2.38
2023-05-03T19:25:04.115Z,2.38
2023-05-03T19:27:30.808Z,3.00
2023-05-03T19:29:57.277Z,2.33
2023-05-03T19:32:23.798Z,2.55
2023-05-03T19:34:49.781Z,2.85
2023-05-03T19:37:15.554Z,2.50
2023-05-03T19:39:41.489Z,3.28
2023-05-03T19:42:08.218Z,2.90
2023-05-03T19:44:34.113Z,2.30
2023-05-03T19:47:00.140Z,3.05
2023-05-03T19:49:26.112Z,2.20
2023-05-03T19:51:55.272Z,2.00
2023-05-03T19:54:22.261Z,2.55
2023-05-03T19:56:49.705Z,2.30
2023-05-03T19:59:15.605Z,2.70
2023-05-03T20:01:42.213Z,2.88
2023-05-03T20:04:08.236Z,2.28
2023-05-03T20:06:34.187Z,3.05
2023-05-03T20:09:00.012Z,2.88
2023-05-03T20:11:25.941Z,2.28
2023-05-03T20:13:51.860Z,2.67
2023-05-03T20:16:20.104Z,2.63
2023-05-03T20:18:47.438Z,2.65
2023-05-03T20:21:13.790Z,2.88
2023-05-03T20:23:39.621Z,2.55
2023-05-03T20:26:05.839Z,2.60
2023-05-03T20:28:36.324Z,3.08
2023-05-03T20:31:02.303Z,3.00
2023-05-03T20:33:28.345Z,3.30
2023-05-03T20:35:54.253Z,2.78
2023-05-03T20:38:20.324Z,2.70
2023-05-03T20:40:46.100Z,2.78
2023-05-03T20:43:12.613Z,3.05
2023-05-03T20:45:40.675Z,2.80
2023-05-03T20:48:11.542Z,2.70
2023-05-03T20:50:37.662Z,2.83
2023-05-03T20:53:03.509Z,2.45
2023-05-03T20:55:29.386Z,2.92
2023-05-03T20:57:56.114Z,2.80
2023-05-03T21:00:22.119Z,2.88
2023-05-03T21:02:52.869Z,2.72
2023-05-03T21:05:20.274Z,2.60
2023-05-03T21:07:46.663Z,2.55
2023-05-03T21:10:12.640Z,2.80
2023-05-03T21:12:38.562Z,2.10
2023-05-03T21:15:04.821Z,2.00
2023-05-03T21:17:30.651Z,2.60
2023-05-03T21:19:56.557Z,2.10
2023-05-03T21:22:22.401Z,2.20
2023-05-03T21:24:48.358Z,2.17
2023-05-03T21:27:14.266Z,2.20
2023-05-03T21:29:40.174Z,2.30
2023-05-03T21:32:06.309Z,1.92
2023-05-03T21:34:32.394Z,1.52
2023-05-03T21:36:58.298Z,2.33
2023-05-03T21:39:24.415Z,1.95
2023-05-03T21:41:50.698Z,2.00
2023-05-03T21:44:16.701Z,2.40
2023-05-03T21:46:42.535Z,2.25
2023-05-03T21:49:08.486Z,1.73
2023-05-03T21:51:34.348Z,2.10
2023-05-03T21:54:00.158Z,2.03
2023-05-03T21:56:29.168Z,2.13
2023-05-03T21:58:54.970Z,2.58
2023-05-03T22:01:21.217Z,2.30
2023-05-03T22:03:49.405Z,2.00
2023-05-03T22:06:15.262Z,2.03
2023-05-03T22:08:41.091Z,2.28
2023-05-03T22:11:06.973Z,2.17
2023-05-03T22:13:33.790Z,2.00
2023-05-03T22:16:07.481Z,2.13
2023-05-03T22:18:34.257Z,1.95
2023-05-03T22:21:03.933Z,2.03
2023-05-03T22:23:30.414Z,2.10
2023-05-03T22:25:56.754Z,1.95
2023-05-03T22:28:22.683Z,1.92
2023-05-03T22:30:51.309Z,2.25
2023-05-03T22:33:17.188Z,2.28
2023-05-03T22:35:43.147Z,2.05
2023-05-03T22:38:08.900Z,1.70
2023-05-03T22:40:34.787Z,1.88
2023-05-03T22:43:00.608Z,2.28
2023-05-03T22:45:26.452Z,2.00
2023-05-03T22:47:52.270Z,1.98
2023-05-03T22:50:18.117Z,1.92
2023-05-03T22:52:43.971Z,2.30
2023-05-03T22:55:09.837Z,2.20
2023-05-03T22:57:35.900Z,2.55
2023-05-03T23:00:02.294Z,2.20
2023-05-03T23:02:28.414Z,1.75
2023-05-03T23:04:54.354Z,1.60
2023-05-03T23:07:20.252Z,1.73
2023-05-03T23:09:47.721Z,1.80
2023-05-03T23:12:13.737Z,1.83
2023-05-03T23:14:42.800Z,1.60
2023-05-03T23:17:09.918Z,1.85
2023-05-03T23:19:36.293Z,1.50
2023-05-03T23:22:05.140Z,1.70
2023-05-03T23:24:30.914Z,2.13
2023-05-03T23:26:56.808Z,2.08
2023-05-03T23:29:23.193Z,1.83
2023-05-03T23:31:49.688Z,2.42
2023-05-03T23:34:16.101Z,2.05
2023-05-03T23:36:42.020Z,1.73
2023-05-03T23:39:08.122Z,1.77
2023-05-03T23:41:33.977Z,2.08
2023-05-03T23:43:59.952Z,1.95
2023-05-03T23:46:26.038Z,1.73
2023-05-03T23:48:51.972Z,1.52
2023-05-03T23:51:17.794Z,1.90
2023-05-03T23:53:43.610Z,1.75
2023-05-03T23:56:09.465Z,2.03
2023-05-03T23:58:35.515Z,1.63
